Time;durP1;ratioP1;P1;durP2;ratioP2;P2;SDS_P1;SDS_P2;PMS_P1;PMS_P2;Temp;Humidity;BMP_temperature;BMP_pressure;BME280_temperature;BME280_humidity;BME280_pressure;Samples;Min_cycle;Max_cycle;Signal;HPM_P1;HPM_P2
2023/01/16 00:01:44;;;;;;;4.00;3.10;;;;;;;;;;6246301;23;20207;-78
2023/01/16 00:04:09;;;;;;;7.30;3.40;;;;;;;;;;6246581;22;20198;-78
2023/01/16 00:06:35;;;;;;;5.23;3.43;;;;;;;;;;6249815;22;20179;-79
2023/01/16 00:09:02;;;;;;;7.33;3.40;;;;;;;;;;6244930;22;20155;-78
2023/01/16 00:11:29;;;;;;;4.20;2.93;;;;;;;;;;6245258;22;20389;-77
2023/01/16 00:13:55;;;;;;;7.23;3.30;;;;;;;;;;6246280;22;20417;-79
2023/01/16 00:16:21;;;;;;;4.37;3.77;;;;;;;;;;6246993;22;20370;-79
2023/01/16 00:18:46;;;;;;;5.20;3.20;;;;;;;;;;6246088;22;20577;-79
2023/01/16 00:21:11;;;;;;;4.30;2.67;;;;;;;;;;6242552;22;20147;-78
2023/01/16 00:23:37;;;;;;;3.93;2.97;;;;;;;;;;6243028;22;20649;-78
2023/01/16 00:26:06;;;;;;;3.37;2.77;;;;;;;;;;6249817;23;20163;-81
2023/01/16 00:28:32;;;;;;;7.10;3.37;;;;;;;;;;6245322;22;20147;-78
2023/01/16 00:30:59;;;;;;;6.00;2.07;;;;;;;;;;6243836;22;20420;-78
2023/01/16 00:33:25;;;;;;;4.27;2.47;;;;;;;;;;6244241;22;20441;-78
2023/01/16 00:35:53;;;;;;;4.97;2.53;;;;;;;;;;6245984;23;20370;-78
2023/01/16 00:38:18;;;;;;;4.63;2.97;;;;;;;;;;6240645;23;20178;-78
2023/01/16 00:40:44;;;;;;;5.07;3.30;;;;;;;;;;6243956;23;20366;-78
2023/01/16 00:43:09;;;;;;;4.70;3.27;;;;;;;;;;6245515;22;20261;-78
2023/01/16 00:45:34;;;;;;;4.73;2.97;;;;;;;;;;6242525;23;20151;-78
2023/01/16 00:48:02;;;;;;;4.17;3.20;;;;;;;;;;6242995;23;20510;-78
2023/01/16 00:50:27;;;;;;;5.30;3.00;;;;;;;;;;6245564;22;20167;-78
2023/01/16 00:52:53;;;;;;;8.03;2.30;;;;;;;;;;6244665;22;20397;-78
2023/01/16 00:55:18;;;;;;;6.47;2.70;;;;;;;;;;6244883;23;20150;-78
2023/01/16 00:57:45;;;;;;;4.43;2.07;;;;;;;;;;6245688;23;20148;-78
2023/01/16 01:00:11;;;;;;;4.33;2.13;;;;;;;;;;6243951;22;20213;-78
2023/01/16 01:02:36;;;;;;;3.93;2.40;;;;;;;;;;6244908;22;20390;-78
2023/01/16 01:05:02;;;;;;;2.70;2.03;;;;;;;;;;6243327;22;20158;-78
2023/01/16 01:07:27;;;;;;;7.03;2.60;;;;;;;;;;6242884;22;20143;-78
2023/01/16 01:09:52;;;;;;;5.60;1.90;;;;;;;;;;6243125;23;20761;-78
2023/01/16 01:12:18;;;;;;;3.83;1.80;;;;;;;;;;6244965;22;20242;-78
2023/01/16 01:14:43;;;;;;;2.00;1.70;;;;;;;;;;6244982;22;20171;-78
2023/01/16 01:17:09;;;;;;;4.93;2.00;;;;;;;;;;6242458;22;20609;-78
2023/01/16 01:19:35;;;;;;;3.30;2.00;;;;;;;;;;6241965;22;20143;-78
2023/01/16 01:22:00;;;;;;;2.37;1.53;;;;;;;;;;6241199;22;20921;-78
2023/01/16 01:24:25;;;;;;;6.73;2.00;;;;;;;;;;6243382;22;20161;-78
2023/01/16 01:26:53;;;;;;;8.20;2.37;;;;;;;;;;6245050;23;20201;-78
2023/01/16 01:29:18;;;;;;;3.80;2.07;;;;;;;;;;6242761;22;20143;-77
2023/01/16 01:31:45;;;;;;;2.23;1.77;;;;;;;;;;6243261;23;21019;-77
2023/01/16 01:34:11;;;;;;;3.77;1.83;;;;;;;;;;6242937;22;20194;-78
2023/01/16 01:36:36;;;;;;;6.40;1.50;;;;;;;;;;6238149;22;20398;-78
2023/01/16 01:39:02;;;;;;;4.20;1.67;;;;;;;;;;6247400;22;20147;-78
2023/01/16 01:41:29;;;;;;;4.63;1.60;;;;;;;;;;6243645;22;20140;-77
2023/01/16 01:43:55;;;;;;;4.60;1.80;;;;;;;;;;6241532;22;20198;-79
2023/01/16 01:46:24;;;;;;;6.40;1.70;;;;;;;;;;6242811;22;20442;-79
2023/01/16 01:48:55;;;;;;;3.83;1.33;;;;;;;;;;6241711;22;20369;-79
2023/01/16 01:51:23;;;;;;;4.70;1.87;;;;;;;;;;6243443;22;20354;-79
2023/01/16 01:53:51;;;;;;;2.93;1.53;;;;;;;;;;6241401;22;20423;-79
2023/01/16 01:56:24;;;;;;;7.77;1.70;;;;;;;;;;6242897;23;20700;-79
2023/01/16 01:58:54;;;;;;;5.40;1.70;;;;;;;;;;6244545;22;20346;-79
2023/01/16 02:01:19;;;;;;;4.60;1.47;;;;;;;;;;6246652;22;20447;-79
2023/01/16 02:03:50;;;;;;;3.37;1.63;;;;;;;;;;6243183;22;20394;-79
2023/01/16 02:06:36;;;;;;;6.10;1.87;;;;;;;;;;6245624;22;20213;-79
2023/01/16 02:09:01;;;;;;;3.60;1.60;;;;;;;;;;6267469;22;20456;-79
2023/01/16 02:11:35;;;;;;;4.57;1.83;;;;;;;;;;6245931;22;20370;-79
2023/01/16 02:14:04;;;;;;;4.00;2.00;;;;;;;;;;6243704;22;20187;-79
2023/01/16 02:19:18;;;;;;;6.30;1.80;;;;;;;;;;6245864;23;20345;-79
2023/01/16 02:22:02;;;;;;;2.33;1.30;;;;;;;;;;6244654;22;20366;-80
2023/01/16 02:24:55;;;;;;;6.10;1.53;;;;;;;;;;6244959;23;20370;-79
2023/01/16 02:27:26;;;;;;;11.13;1.97;;;;;;;;;;6241691;23;20382;-79
2023/01/16 02:30:00;;;;;;;4.77;1.40;;;;;;;;;;6244539;23;20367;-79
2023/01/16 02:32:43;;;;;;;4.30;1.20;;;;;;;;;;6238354;22;21003;-78
2023/01/16 02:35:25;;;;;;;7.90;1.53;;;;;;;;;;6240647;22;20417;-78
2023/01/16 02:38:09;;;;;;;4.83;1.50;;;;;;;;;;6240739;22;20416;-79
2023/01/16 02:40:43;;;;;;;8.77;1.80;;;;;;;;;;6240751;23;20362;-78
2023/01/16 02:43:11;;;;;;;3.50;1.47;;;;;;;;;;6239026;22;20725;-79
2023/01/16 02:45:42;;;;;;;4.93;1.67;;;;;;;;;;6241792;23;20370;-79
2023/01/16 02:48:08;;;;;;;8.90;2.07;;;;;;;;;;6238251;22;20366;-78
2023/01/16 02:50:39;;;;;;;6.23;1.57;;;;;;;;;;6237290;22;20689;-79
2023/01/16 02:53:12;;;;;;;6.87;1.70;;;;;;;;;;6239689;22;20159;-78
2023/01/16 02:55:47;;;;;;;5.73;1.60;;;;;;;;;;6240722;22;20346;-79
2023/01/16 02:58:14;;;;;;;5.33;1.40;;;;;;;;;;6238502;22;20583;-79
2023/01/16 03:00:48;;;;;;;3.63;1.70;;;;;;;;;;6240743;22;20362;-78
2023/01/16 03:03:37;;;;;;;4.17;1.30;;;;;;;;;;6238588;22;20408;-79
2023/01/16 03:06:13;;;;;;;4.70;1.70;;;;;;;;;;6195631;22;20379;-78
2023/01/16 03:08:51;;;;;;;5.40;1.57;;;;;;;;;;6239315;22;20362;-78
2023/01/16 03:11:22;;;;;;;6.60;1.70;;;;;;;;;;6237405;23;20707;-79
2023/01/16 03:13:48;;;;;;;3.63;1.60;;;;;;;;;;6237885;22;20418;-79
2023/01/16 03:16:19;;;;;;;4.43;1.77;;;;;;;;;;6238607;22;20373;-78
2023/01/16 03:18:50;;;;;;;4.60;1.60;;;;;;;;;;6240725;22;20198;-78
2023/01/16 03:21:35;;;;;;;2.40;1.20;;;;;;;;;;6237414;23;20866;-79
2023/01/16 03:24:10;;;;;;;2.37;1.10;;;;;;;;;;6238239;22;20480;-79
2023/01/16 03:26:38;;;;;;;3.40;1.40;;;;;;;;;;6237462;23;20373;-79
2023/01/16 03:29:22;;;;;;;4.30;1.53;;;;;;;;;;6238058;22;20362;-79
2023/01/16 03:31:56;;;;;;;4.90;1.27;;;;;;;;;;6242421;23;20994;-78
2023/01/16 03:34:21;;;;;;;8.07;1.50;;;;;;;;;;6250681;23;20504;-79
2023/01/16 03:36:46;;;;;;;3.13;1.43;;;;;;;;;;6240497;23;20429;-78
2023/01/16 03:39:16;;;;;;;3.43;1.23;;;;;;;;;;6243233;23;20143;-77
2023/01/16 03:41:45;;;;;;;9.97;2.07;;;;;;;;;;6241793;22;20159;-77
2023/01/16 03:44:29;;;;;;;4.27;1.30;;;;;;;;;;6241710;22;20401;-77
2023/01/16 03:46:55;;;;;;;2.60;1.50;;;;;;;;;;6243938;23;20385;-79
2023/01/16 03:49:24;;;;;;;4.57;1.83;;;;;;;;;;6243025;22;20374;-79
2023/01/16 03:51:52;;;;;;;4.27;1.30;;;;;;;;;;6241824;22;20377;-78
2023/01/16 03:54:25;;;;;;;5.13;1.30;;;;;;;;;;6245221;22;20441;-77
2023/01/16 03:56:56;;;;;;;2.23;1.13;;;;;;;;;;6245479;22;20421;-77
2023/01/16 03:59:21;;;;;;;5.80;1.20;;;;;;;;;;6244867;23;20366;-77
2023/01/16 04:01:54;;;;;;;6.30;2.50;;;;;;;;;;6243468;23;20400;-77
2023/01/16 04:04:23;;;;;;;4.43;1.83;;;;;;;;;;6245655;22;20229;-77
2023/01/16 04:07:00;;;;;;;3.73;1.50;;;;;;;;;;6244627;22;20453;-77
2023/01/16 04:09:33;;;;;;;3.50;1.47;;;;;;;;;;6239857;23;20419;-78
2023/01/16 04:12:00;;;;;;;4.87;1.37;;;;;;;;;;6243834;22;21102;-77
2023/01/16 04:14:25;;;;;;;6.27;1.67;;;;;;;;;;6245363;22;20416;-77
2023/01/16 04:16:51;;;;;;;5.13;1.67;;;;;;;;;;6246032;22;20362;-77
2023/01/16 04:19:17;;;;;;;3.27;1.20;;;;;;;;;;6243123;22;20143;-77
2023/01/16 04:21:44;;;;;;;5.20;1.50;;;;;;;;;;6242816;22;20182;-77
2023/01/16 04:24:10;;;;;;;2.50;1.30;;;;;;;;;;6241657;22;20402;-77
2023/01/16 04:26:35;;;;;;;5.07;1.60;;;;;;;;;;6243458;23;20369;-77
2023/01/16 04:29:01;;;;;;;4.17;1.60;;;;;;;;;;6242305;22;20155;-77
2023/01/16 04:31:28;;;;;;;4.10;1.53;;;;;;;;;;6239439;23;20155;-77
2023/01/16 04:33:53;;;;;;;9.03;2.80;;;;;;;;;;6242255;22;20175;-78
2023/01/16 04:36:18;;;;;;;2.43;1.30;;;;;;;;;;6242034;23;20369;-77
2023/01/16 04:38:44;;;;;;;2.90;1.40;;;;;;;;;;6240687;23;20159;-77
2023/01/16 04:41:09;;;;;;;5.17;1.60;;;;;;;;;;6242023;23;20171;-77
2023/01/16 04:43:34;;;;;;;2.53;1.30;;;;;;;;;;6242267;22;20183;-77
2023/01/16 04:46:02;;;;;;;3.60;1.40;;;;;;;;;;6237574;22;20154;-77
2023/01/16 04:48:27;;;;;;;2.77;1.50;;;;;;;;;;6239371;22;20221;-77
2023/01/16 04:50:55;;;;;;;4.70;1.70;;;;;;;;;;6241016;22;20402;-77
2023/01/16 04:53:20;;;;;;;6.20;1.80;;;;;;;;;;6240512;22;20413;-77
2023/01/16 04:55:45;;;;;;;4.87;1.77;;;;;;;;;;6242100;23;20445;-78
2023/01/16 04:58:11;;;;;;;7.10;1.60;;;;;;;;;;6238999;23;20586;-77
2023/01/16 05:00:36;;;;;;;7.70;1.90;;;;;;;;;;6241723;22;20185;-78
2023/01/16 05:03:01;;;;;;;4.93;1.93;;;;;;;;;;6241027;22;20242;-77
2023/01/16 05:05:26;;;;;;;4.77;1.53;;;;;;;;;;6239016;22;20145;-77
2023/01/16 05:08:36;;;;;;;6.20;2.63;;;;;;;;;;6241878;23;20143;-77
2023/01/16 05:10:42;;;;;;;5.33;1.80;;;;;;;;;;6233398;22;20475;-77
2023/01/16 05:13:08;;;;;;;2.93;1.27;;;;;;;;;;6240772;22;20404;-77
2023/01/16 05:15:36;;;;;;;6.27;1.77;;;;;;;;;;6241246;23;20555;-77
2023/01/16 05:18:01;;;;;;;4.10;1.87;;;;;;;;;;6240704;22;20525;-77
2023/01/16 05:20:26;;;;;;;6.93;2.10;;;;;;;;;;6241752;23;20386;-77
2023/01/16 05:22:52;;;;;;;2.70;1.50;;;;;;;;;;6240998;22;20161;-78
2023/01/16 05:25:19;;;;;;;3.03;1.30;;;;;;;;;;6241200;23;20151;-78
2023/01/16 05:27:50;;;;;;;4.57;1.60;;;;;;;;;;6247753;22;20241;-77
2023/01/16 05:30:16;;;;;;;6.20;1.70;;;;;;;;;;6244176;22;20369;-76
2023/01/16 05:32:42;;;;;;;3.37;1.80;;;;;;;;;;6242226;22;20393;-77
2023/01/16 05:35:08;;;;;;;4.93;1.90;;;;;;;;;;6245697;22;20189;-77
2023/01/16 05:37:33;;;;;;;3.43;1.80;;;;;;;;;;6241675;22;20828;-77
2023/01/16 05:39:59;;;;;;;3.87;1.60;;;;;;;;;;6244286;23;20135;-77
2023/01/16 05:42:25;;;;;;;4.00;1.30;;;;;;;;;;6244425;22;20183;-77
2023/01/16 05:44:51;;;;;;;3.47;2.00;;;;;;;;;;6245191;22;20397;-77
2023/01/16 05:47:16;;;;;;;2.93;1.60;;;;;;;;;;6239926;22;20150;-77
2023/01/16 05:49:42;;;;;;;4.90;1.70;;;;;;;;;;6242328;22;20706;-77
2023/01/16 05:52:07;;;;;;;4.40;2.00;;;;;;;;;;6243955;22;20492;-77
2023/01/16 05:54:32;;;;;;;3.50;1.90;;;;;;;;;;6246156;22;20174;-78
2023/01/16 05:56:57;;;;;;;3.83;1.53;;;;;;;;;;6244920;22;20142;-78
2023/01/16 05:59:23;;;;;;;3.73;1.90;;;;;;;;;;6240325;23;20573;-77
2023/01/16 06:01:48;;;;;;;4.10;2.00;;;;;;;;;;6240964;23;20147;-77
2023/01/16 06:04:13;;;;;;;3.57;1.60;;;;;;;;;;6243386;22;20163;-77
2023/01/16 06:06:41;;;;;;;3.63;2.03;;;;;;;;;;6242437;22;20676;-77
2023/01/16 06:09:07;;;;;;;9.27;2.57;;;;;;;;;;6241163;23;20594;-78
2023/01/16 06:11:34;;;;;;;3.33;2.00;;;;;;;;;;6244909;22;20400;-77
2023/01/16 06:14:18;;;;;;;;;;;;;;;;;;;;;
2023/01/16 06:16:44;;;;;;;5.40;2.30;;;;;;;;;;6251511;22;20394;-77
2023/01/16 06:19:09;;;;;;;5.87;2.30;;;;;;;;;;6239482;23;20703;-77
2023/01/16 06:21:35;;;;;;;3.80;1.97;;;;;;;;;;6236707;22;20227;-77
2023/01/16 06:24:00;;;;;;;3.53;2.30;;;;;;;;;;6237408;22;20230;-78
2023/01/16 06:26:25;;;;;;;6.13;2.70;;;;;;;;;;6239593;22;20147;-78
2023/01/16 06:28:51;;;;;;;6.17;2.93;;;;;;;;;;6236285;23;20497;-77
2023/01/16 06:31:16;;;;;;;5.33;2.53;;;;;;;;;;6239544;22;20153;-77
2023/01/16 06:33:51;;;;;;;5.20;3.60;;;;;;;;;;5044930;27;20546;-71
2023/01/16 06:36:19;;;;;;;4.37;3.03;;;;;;;;;;5011663;28;20436;-71
2023/01/16 06:38:44;;;;;;;3.93;3.50;;;;;;;;;;4999427;28;20173;-70
2023/01/16 06:41:10;;;;;;;7.87;3.60;;;;;;;;;;5002519;28;20444;-70
2023/01/16 06:43:36;;;;;;;4.13;3.70;;;;;;;;;;4997430;28;20211;-71
2023/01/16 06:46:01;;;;;;;3.73;3.13;;;;;;;;;;4996713;28;20260;-70
2023/01/16 06:48:26;;;;;;;10.07;4.10;;;;;;;;;;4996994;28;20169;-71
2023/01/16 06:50:52;;;;;;;5.17;3.70;;;;;;;;;;4999051;28;20198;-71
2023/01/16 06:53:17;;;;;;;4.47;4.07;;;;;;;;;;5000630;28;20177;-70
2023/01/16 06:55:43;;;;;;;6.43;5.10;;;;;;;;;;4999675;28;20177;-70
2023/01/16 06:58:08;;;;;;;7.13;5.33;;;;;;;;;;5002462;28;20559;-70
2023/01/16 07:00:34;;;;;;;8.30;5.40;;;;;;;;;;4993513;28;20327;-70
2023/01/16 07:03:00;;;;;;;6.20;5.60;;;;;;;;;;5002689;28;20198;-72
2023/01/16 07:05:26;;;;;;;6.30;5.70;;;;;;;;;;5002041;28;20434;-71
2023/01/16 07:07:52;;;;;;;8.50;6.77;;;;;;;;;;4997555;28;20212;-71
2023/01/16 07:10:20;;;;;;;8.23;7.43;;;;;;;;;;4996348;28;20478;-70
2023/01/16 07:12:45;;;;;;;8.23;7.40;;;;;;;;;;4998672;28;20201;-73
2023/01/16 07:23:35;;;;;;;9.83;6.63;;;;;;;;;;4995015;28;20470;-70
2023/01/16 07:26:02;;;;;;;10.50;6.43;;;;;;;;;;4994463;28;20429;-71
2023/01/16 07:28:28;;;;;;;8.23;6.07;;;;;;;;;;4991371;28;20439;-72
2023/01/16 07:30:54;;;;;;;7.13;6.00;;;;;;;;;;4999691;28;20443;-73
2023/01/16 07:33:19;;;;;;;8.93;6.70;;;;;;;;;;4997358;28;20212;-73
2023/01/16 07:35:45;;;;;;;7.23;6.07;;;;;;;;;;4998218;28;20181;-73
2023/01/16 07:38:13;;;;;;;6.90;6.20;;;;;;;;;;4999843;28;20185;-73
2023/01/16 07:40:38;;;;;;;10.70;6.20;;;;;;;;;;5003561;28;20596;-73
2023/01/16 07:43:03;;;;;;;8.60;6.10;;;;;;;;;;4999453;28;20478;-73
2023/01/16 07:45:29;;;;;;;7.03;6.10;;;;;;;;;;4986084;28;20748;-73
2023/01/16 07:47:54;;;;;;;8.90;5.80;;;;;;;;;;4987361;28;20178;-73
2023/01/16 07:50:19;;;;;;;6.97;5.50;;;;;;;;;;4986634;28;20177;-72
2023/01/16 07:52:45;;;;;;;6.93;4.83;;;;;;;;;;4985281;28;20197;-72
2023/01/16 07:55:11;;;;;;;6.20;4.60;;;;;;;;;;4990653;28;20268;-72
2023/01/16 07:57:37;;;;;;;7.17;4.70;;;;;;;;;;4982479;28;21092;-73
2023/01/16 08:00:03;;;;;;;8.20;4.37;;;;;;;;;;4986549;28;20185;-73
2023/01/16 08:02:28;;;;;;;5.60;4.40;;;;;;;;;;4979922;28;21184;-73
2023/01/16 08:04:53;;;;;;;8.40;4.50;;;;;;;;;;4977277;28;20468;-73
2023/01/16 08:07:18;;;;;;;5.37;4.07;;;;;;;;;;4987132;28;20181;-72
2023/01/16 08:09:44;;;;;;;4.67;4.00;;;;;;;;;;4988421;28;20666;-72
2023/01/16 08:12:10;;;;;;;12.27;4.83;;;;;;;;;;4988499;28;20259;-73
2023/01/16 08:14:35;;;;;;;6.80;4.10;;;;;;;;;;4978509;28;20815;-73
2023/01/16 08:17:01;;;;;;;6.53;3.83;;;;;;;;;;4973198;28;20185;-72
2023/01/16 08:19:26;;;;;;;4.37;3.77;;;;;;;;;;4990372;28;20774;-72
2023/01/16 08:21:51;;;;;;;6.60;4.57;;;;;;;;;;4986704;28;20194;-72
2023/01/16 08:24:18;;;;;;;5.40;3.73;;;;;;;;;;4986928;28;20186;-72
2023/01/16 08:26:43;;;;;;;7.03;5.07;;;;;;;;;;4988664;28;20272;-73
2023/01/16 08:29:09;;;;;;;4.80;4.20;;;;;;;;;;4988985;28;20503;-73
2023/01/16 08:31:34;;;;;;;7.07;4.37;;;;;;;;;;4982449;28;20589;-73
2023/01/16 08:33:59;;;;;;;5.83;4.60;;;;;;;;;;4982986;28;21473;-73
2023/01/16 08:36:27;;;;;;;5.77;4.40;;;;;;;;;;4978565;28;20189;-72
2023/01/16 08:38:53;;;;;;;6.03;4.27;;;;;;;;;;4972606;28;20217;-73
2023/01/16 08:52:27;;;;;;;3.83;3.43;;;;;;;;;;4984293;28;20658;-72
2023/01/16 08:54:52;;;;;;;4.23;3.20;;;;;;;;;;4984423;28;20561;-72
2023/01/16 08:57:17;;;;;;;4.30;3.40;;;;;;;;;;4978187;28;20453;-72
2023/01/16 08:59:43;;;;;;;7.10;3.30;;;;;;;;;;4977945;28;20659;-72
2023/01/16 09:02:10;;;;;;;4.90;3.80;;;;;;;;;;4980519;28;20216;-72
2023/01/16 09:04:37;;;;;;;5.47;3.37;;;;;;;;;;4982110;28;20194;-72
2023/01/16 09:07:03;;;;;;;5.60;2.93;;;;;;;;;;4987472;28;20962;-73
2023/01/16 09:09:29;;;;;;;3.83;3.50;;;;;;;;;;4981571;28;20429;-72
2023/01/16 09:14:42;;;;;;;6.47;4.03;;;;;;;;;;4984745;28;20447;-72
2023/01/16 09:17:07;;;;;;;5.03;3.73;;;;;;;;;;4982423;28;20437;-73
2023/01/16 09:19:33;;;;;;;4.17;3.50;;;;;;;;;;4984505;28;20801;-72
2023/01/16 09:21:59;;;;;;;5.30;3.40;;;;;;;;;;4999009;28;20216;-73
2023/01/16 09:24:24;;;;;;;4.13;3.37;;;;;;;;;;4984243;28;20185;-72
2023/01/16 09:26:50;;;;;;;6.03;3.20;;;;;;;;;;4991683;28;20182;-73
2023/01/16 09:29:15;;;;;;;5.60;2.93;;;;;;;;;;4996986;28;20185;-72
2023/01/16 09:31:40;;;;;;;8.30;3.00;;;;;;;;;;4985483;28;20219;-72
2023/01/16 09:34:09;;;;;;;5.10;3.20;;;;;;;;;;4985593;28;20182;-72
2023/01/16 09:36:34;;;;;;;4.40;3.27;;;;;;;;;;4978841;28;20177;-73
2023/01/16 09:38:59;;;;;;;3.57;2.70;;;;;;;;;;4979281;28;20440;-72
2023/01/16 09:44:12;;;;;;;3.10;2.43;;;;;;;;;;4975164;28;20250;-72
2023/01/16 09:46:45;;;;;;;4.97;3.07;;;;;;;;;;4985865;28;20433;-72
2023/01/16 09:49:17;;;;;;;4.20;2.70;;;;;;;;;;4987201;28;20425;-72
2023/01/16 09:58:34;;;;;;;3.03;2.57;;;;;;;;;;4984069;28;20456;-72
2023/01/16 10:00:02;;;;;;;3.20;2.20;;;;;;;;;;4982689;28;20803;-72
2023/01/16 10:02:30;;;;;;;2.97;2.60;;;;;;;;;;4986589;28;21100;-72
2023/01/16 10:04:56;;;;;;;3.50;2.53;;;;;;;;;;4983731;28;20437;-72
2023/01/16 10:07:34;;;;;;;3.60;2.30;;;;;;;;;;4981525;28;20444;-73
2023/01/16 10:10:05;;;;;;;5.13;2.37;;;;;;;;;;4987212;28;20760;-71
2023/01/16 10:12:35;;;;;;;3.07;2.20;;;;;;;;;;4980703;28;20461;-72
2023/01/16 10:15:04;;;;;;;3.47;2.33;;;;;;;;;;4984229;28;20941;-72
2023/01/16 10:17:32;;;;;;;2.50;1.93;;;;;;;;;;5003434;28;20858;-72
2023/01/16 10:19:57;;;;;;;4.67;2.33;;;;;;;;;;4981074;28;20441;-73
2023/01/16 10:22:38;;;;;;;2.93;2.20;;;;;;;;;;4984262;28;20456;-71
2023/01/16 10:25:14;;;;;;;5.77;2.87;;;;;;;;;;4980601;28;20223;-72
2023/01/16 10:27:58;;;;;;;7.87;2.23;;;;;;;;;;4981777;28;20436;-71
2023/01/16 10:30:36;;;;;;;4.10;2.23;;;;;;;;;;4978971;28;20440;-72
2023/01/16 10:33:11;;;;;;;4.00;2.10;;;;;;;;;;4981606;28;20447;-72
2023/01/16 10:35:38;;;;;;;4.00;2.00;;;;;;;;;;4982213;28;20518;-72
2023/01/16 10:38:45;;;;;;;3.43;1.73;;;;;;;;;;4991442;28;20455;-72
2023/01/16 10:49:34;;;;;;;3.97;1.90;;;;;;;;;;4985175;28;20612;-72
2023/01/16 10:52:01;;;;;;;2.60;1.60;;;;;;;;;;4983349;28;20976;-74
2023/01/16 10:54:26;;;;;;;3.23;1.80;;;;;;;;;;4984463;28;20174;-72
2023/01/16 10:56:52;;;;;;;3.03;1.50;;;;;;;;;;4987195;28;20431;-72
2023/01/16 10:59:18;;;;;;;3.23;1.50;;;;;;;;;;4985571;28;20268;-72
2023/01/16 11:01:43;;;;;;;2.30;1.50;;;;;;;;;;4986232;28;20305;-72
2023/01/16 11:04:10;;;;;;;4.10;1.60;;;;;;;;;;4969221;28;20440;-72
2023/01/16 11:06:37;;;;;;;5.77;1.50;;;;;;;;;;4981240;28;20431;-73
2023/01/16 11:09:04;;;;;;;2.50;1.33;;;;;;;;;;4990824;28;20433;-72
2023/01/16 11:20:01;;;;;;;1.77;1.10;;;;;;;;;;4991242;28;20455;-73
2023/01/16 11:22:27;;;;;;;2.13;1.33;;;;;;;;;;4987918;28;20969;-73
2023/01/16 11:24:55;;;;;;;3.30;1.23;;;;;;;;;;4990197;28;21004;-73
2023/01/16 11:27:22;;;;;;;2.50;1.27;;;;;;;;;;5005685;28;21015;-74
2023/01/16 11:29:51;;;;;;;1.93;1.10;;;;;;;;;;4985383;28;20421;-72
2023/01/16 11:32:24;;;;;;;4.00;1.33;;;;;;;;;;4981877;28;20568;-72
2023/01/16 11:34:50;;;;;;;3.77;1.27;;;;;;;;;;4983475;28;20428;-73
2023/01/16 11:37:16;;;;;;;3.80;1.13;;;;;;;;;;4989452;28;20456;-73
2023/01/16 11:39:47;;;;;;;3.73;1.20;;;;;;;;;;4981545;28;20659;-73
2023/01/16 11:47:43;;;;;;;1.13;0.90;;;;;;;;;;4985504;28;20860;-72
2023/01/16 11:50:29;;;;;;;4.30;1.50;;;;;;;;;;4982845;28;20452;-73
2023/01/16 11:52:54;;;;;;;2.80;1.10;;;;;;;;;;4979189;28;20833;-74
2023/01/16 11:55:21;;;;;;;6.57;1.60;;;;;;;;;;4986001;28;20429;-73
2023/01/16 11:57:55;;;;;;;4.10;1.00;;;;;;;;;;5005518;28;20666;-73
2023/01/16 12:00:21;;;;;;;3.27;1.20;;;;;;;;;;4989206;28;20464;-73
2023/01/16 12:02:52;;;;;;;1.43;0.83;;;;;;;;;;4986508;28;20941;-73
2023/01/16 12:08:22;;;;;;;3.90;0.90;;;;;;;;;;4986250;28;20419;-73
2023/01/16 12:16:26;;;;;;;2.23;0.90;;;;;;;;;;4997695;28;20505;-72
2023/01/16 12:19:02;;;;;;;1.23;0.90;;;;;;;;;;4989095;28;20448;-73
2023/01/16 12:21:30;;;;;;;1.93;1.10;;;;;;;;;;4987257;28;20439;-72
2023/01/16 12:24:04;;;;;;;1.80;1.20;;;;;;;;;;4991914;28;20463;-72
2023/01/16 12:26:35;;;;;;;3.00;1.10;;;;;;;;;;4997218;28;20439;-72
2023/01/16 12:29:04;;;;;;;2.10;1.00;;;;;;;;;;5000333;28;20428;-72
2023/01/16 12:31:35;;;;;;;2.10;0.90;;;;;;;;;;4998263;28;20448;-72
2023/01/16 12:34:16;;;;;;;1.47;1.10;;;;;;;;;;5013981;28;20618;-72
2023/01/16 12:36:47;;;;;;;2.57;1.07;;;;;;;;;;4996989;28;20437;-72
2023/01/16 12:39:12;;;;;;;1.83;1.00;;;;;;;;;;5016525;28;20432;-72
2023/01/16 12:44:48;;;;;;;1.20;1.00;;;;;;;;;;4990724;28;20184;-72
2023/01/16 12:47:22;;;;;;;2.40;1.30;;;;;;;;;;4997087;28;20428;-72
2023/01/16 12:49:52;;;;;;;2.03;1.30;;;;;;;;;;5001742;28;20423;-72
2023/01/16 12:52:23;;;;;;;3.33;1.33;;;;;;;;;;4998101;28;20553;-72
2023/01/16 12:55:07;;;;;;;3.53;1.23;;;;;;;;;;5000160;28;20429;-72
2023/01/16 12:57:48;;;;;;;2.00;1.17;;;;;;;;;;5001233;28;20416;-72
2023/01/16 13:00:23;;;;;;;1.20;1.03;;;;;;;;;;4996132;28;20419;-73
2023/01/16 13:02:51;;;;;;;2.40;1.30;;;;;;;;;;4999318;28;20463;-73
2023/01/16 13:05:18;;;;;;;1.30;1.07;;;;;;;;;;4998402;28;20493;-74
2023/01/16 13:07:47;;;;;;;1.63;1.10;;;;;;;;;;5004282;28;20511;-73
2023/01/16 13:13:24;;;;;;;3.43;1.30;;;;;;;;;;5003025;28;20498;-72
2023/01/16 13:16:09;;;;;;;4.60;1.90;;;;;;;;;;4998131;28;20481;-72
2023/01/16 13:18:35;;;;;;;2.60;1.80;;;;;;;;;;4999087;28;20494;-74
2023/01/16 13:21:02;;;;;;;3.87;2.30;;;;;;;;;;4992002;28;20480;-72
2023/01/16 13:23:39;;;;;;;3.00;1.90;;;;;;;;;;4991101;28;20220;-73
2023/01/16 13:26:09;;;;;;;3.57;1.60;;;;;;;;;;4992123;28;20950;-72
2023/01/16 13:28:47;;;;;;;2.17;1.37;;;;;;;;;;4986039;28;20539;-71
2023/01/16 13:31:31;;;;;;;2.07;1.70;;;;;;;;;;4998630;28;20451;-71
2023/01/16 13:34:00;;;;;;;4.50;2.20;;;;;;;;;;4992814;28;20441;-71
2023/01/16 13:36:41;;;;;;;4.13;1.90;;;;;;;;;;4999112;28;20435;-70
2023/01/16 13:39:21;;;;;;;3.80;2.40;;;;;;;;;;4993451;28;20438;-71
2023/01/16 13:41:48;;;;;;;4.67;3.10;;;;;;;;;;4995999;28;20449;-71
2023/01/16 13:47:15;;;;;;;3.10;1.80;;;;;;;;;;4998455;28;20905;-70
2023/01/16 13:49:41;;;;;;;2.70;1.60;;;;;;;;;;4996293;28;20431;-71
2023/01/16 13:52:16;;;;;;;4.07;1.40;;;;;;;;;;4995038;28;20805;-71
2023/01/16 13:54:43;;;;;;;1.90;1.10;;;;;;;;;;5001865;28;20192;-71
2023/01/16 13:57:13;;;;;;;4.47;1.70;;;;;;;;;;4999743;28;21436;-71
2023/01/16 13:59:41;;;;;;;2.00;1.20;;;;;;;;;;4993798;28;20583;-71
2023/01/16 14:02:33;;;;;;;2.90;1.50;;;;;;;;;;5001328;28;21888;-71
2023/01/16 14:05:04;;;;;;;2.00;1.40;;;;;;;;;;4998052;28;20436;-70
2023/01/16 14:11:13;;;;;;;2.93;1.43;;;;;;;;;;4998996;28;21132;-71
2023/01/16 14:13:38;;;;;;;4.70;1.30;;;;;;;;;;4964642;28;20441;-72
2023/01/16 14:16:32;;;;;;;2.70;1.27;;;;;;;;;;4976173;28;20437;-73
2023/01/16 14:18:59;;;;;;;2.33;1.10;;;;;;;;;;4994813;28;20189;-72
2023/01/16 14:21:37;;;;;;;2.17;0.90;;;;;;;;;;4998981;28;20909;-72
2023/01/16 14:24:05;;;;;;;3.80;1.40;;;;;;;;;;5003356;28;21002;-72
2023/01/16 14:26:33;;;;;;;4.23;1.30;;;;;;;;;;4999598;28;20431;-72
2023/01/16 14:29:00;;;;;;;4.30;1.13;;;;;;;;;;5000589;28;20798;-71
2023/01/16 14:31:39;;;;;;;3.57;1.10;;;;;;;;;;4994017;28;20452;-72
2023/01/16 14:34:04;;;;;;;2.23;1.53;;;;;;;;;;4998233;28;20423;-72
2023/01/16 14:36:32;;;;;;;2.13;1.03;;;;;;;;;;5000637;28;20865;-72
2023/01/16 14:38:58;;;;;;;2.93;1.43;;;;;;;;;;4996316;28;20177;-73
2023/01/16 14:55:59;;;;;;;2.60;0.90;;;;;;;;;;4998488;28;20451;-73
2023/01/16 14:58:48;;;;;;;4.07;1.47;;;;;;;;;;4999346;28;20446;-74
2023/01/16 15:04:05;;;;;;;1.67;1.00;;;;;;;;;;4999760;28;20480;-73
2023/01/16 15:06:33;;;;;;;1.13;1.00;;;;;;;;;;5001819;28;20432;-73
2023/01/16 15:08:59;;;;;;;4.50;1.07;;;;;;;;;;5002634;28;20705;-74
2023/01/16 15:11:33;;;;;;;1.30;0.97;;;;;;;;;;4996282;28;20466;-73
2023/01/16 15:14:30;;;;;;;1.30;0.80;;;;;;;;;;5000556;28;20443;-73
2023/01/16 15:23:00;;;;;;;1.10;0.90;;;;;;;;;;4993832;28;21040;-72
2023/01/16 15:25:28;;;;;;;1.63;0.90;;;;;;;;;;4991177;28;20491;-73
2023/01/16 15:28:17;;;;;;;1.17;0.80;;;;;;;;;;5066738;22;20495;-70
2023/01/16 15:30:43;;;;;;;1.10;0.70;;;;;;;;;;5008827;28;20514;-69
2023/01/16 15:36:13;;;;;;;2.37;0.70;;;;;;;;;;5007846;28;20435;-68
2023/01/16 15:38:38;;;;;;;1.00;0.70;;;;;;;;;;4999823;28;20444;-70
2023/01/16 15:41:04;;;;;;;2.40;0.87;;;;;;;;;;4988473;28;20659;-69
2023/01/16 15:46:32;;;;;;;0.90;0.80;;;;;;;;;;4999830;28;20200;-68
2023/01/16 15:49:16;;;;;;;1.40;0.90;;;;;;;;;;4999488;28;20456;-69
2023/01/16 15:51:48;;;;;;;1.90;0.90;;;;;;;;;;5021343;28;20861;-70
2023/01/16 15:54:14;;;;;;;1.20;0.80;;;;;;;;;;4995822;28;20462;-70
2023/01/16 15:56:43;;;;;;;2.23;0.97;;;;;;;;;;4997121;28;20436;-69
2023/01/16 15:59:33;;;;;;;1.83;0.80;;;;;;;;;;4997668;28;20440;-69
2023/01/16 16:02:15;;;;;;;4.00;1.70;;;;;;;;;;4992370;28;20517;-70
2023/01/16 16:04:43;;;;;;;4.50;2.33;;;;;;;;;;4996173;28;20519;-69
2023/01/16 16:07:10;;;;;;;2.97;1.77;;;;;;;;;;4986146;28;20459;-70
2023/01/16 16:09:36;;;;;;;2.10;1.37;;;;;;;;;;4995858;28;21225;-69
2023/01/16 16:12:04;;;;;;;3.13;1.60;;;;;;;;;;4997794;28;20482;-68
2023/01/16 16:20:25;;;;;;;1.77;0.90;;;;;;;;;;4995128;28;20531;-69
2023/01/16 16:22:51;;;;;;;1.53;1.27;;;;;;;;;;5001790;28;20471;-69
2023/01/16 16:25:28;;;;;;;1.90;1.30;;;;;;;;;;4994929;28;20440;-69
2023/01/16 16:27:53;;;;;;;1.43;1.00;;;;;;;;;;4997340;28;20952;-69
2023/01/16 16:30:22;;;;;;;2.40;1.27;;;;;;;;;;5001901;28;20432;-69
2023/01/16 16:32:50;;;;;;;1.93;1.00;;;;;;;;;;5001265;28;20252;-69
2023/01/16 16:35:34;;;;;;;2.87;1.00;;;;;;;;;;4995807;28;20817;-69
2023/01/16 16:38:01;;;;;;;1.47;1.10;;;;;;;;;;4999878;28;20431;-68
2023/01/16 16:40:26;;;;;;;1.40;0.90;;;;;;;;;;5003964;28;20912;-69
2023/01/16 16:42:58;;;;;;;2.57;1.20;;;;;;;;;;4989417;28;20532;-68
2023/01/16 16:45:24;;;;;;;1.00;0.80;;;;;;;;;;4999796;28;20228;-69
2023/01/16 16:48:09;;;;;;;1.27;0.80;;;;;;;;;;4998797;28;20440;-68